Terminal Aerodrome Forecast
Issued by NWS

Home | Current Version | Previous Version | Text Only | Print | Product List | Glossary On
Versions: 1 2 3 4 5 6 7 8 9 10 11 12 13 14 15 16 17 18 19 20 21 22
000
FTUS46 KLOX 012353
TAFLGB
TAF
KLGB 012353Z 0200/0224 29008KT P6SM FEW012 SCT250
     FM020700 25007KT 6SM BR BKN009
     FM020900 VRB03KT P6SM OVC013
     FM021700 18006KT P6SM SCT011 SCT250
     FM022100 20008KT P6SM SCT250
     FM022300 29008KT P6SM SCT250=

USA.gov is the U.S. government's official web portal to all federal, state and local government web resources and services.